createdAt,value
2019-02-26T00:00:44.870Z,6.47
2019-02-26T00:03:10.229Z,6.50
2019-02-26T00:05:38.713Z,6.85
2019-02-26T00:08:07.213Z,9.08
2019-02-26T00:10:37.128Z,9.00
2019-02-26T00:13:05.903Z,9.78
2019-02-26T00:15:35.841Z,8.43
2019-02-26T00:18:07.507Z,10.95
2019-02-26T00:20:37.348Z,14.43
2019-02-26T00:23:05.043Z,10.13
2019-02-26T00:25:33.567Z,11.03
2019-02-26T00:28:02.052Z,11.25
2019-02-26T00:30:31.217Z,10.43
2019-02-26T00:33:02.806Z,10.05
2019-02-26T00:35:30.973Z,9.55
2019-02-26T00:37:59.456Z,9.18
2019-02-26T00:40:27.940Z,10.60
2019-02-26T00:42:57.565Z,9.18
2019-02-26T00:45:27.230Z,11.55
2019-02-26T00:47:56.858Z,12.98
2019-02-26T00:50:25.346Z,10.75
2019-02-26T00:52:56.499Z,10.30
2019-02-26T00:55:27.280Z,10.03
2019-02-26T00:57:56.772Z,11.22
2019-02-26T01:00:26.304Z,11.65
2019-02-26T01:02:54.712Z,10.03
2019-02-26T01:05:23.181Z,9.80
2019-02-26T01:07:52.617Z,10.13
2019-02-26T01:10:23.618Z,9.98
2019-02-26T01:12:52.249Z,11.25
2019-02-26T01:15:21.442Z,11.25
2019-02-26T01:17:49.960Z,10.58
2019-02-26T01:20:19.593Z,12.60
2019-02-26T01:22:49.100Z,12.07
2019-02-26T01:25:18.496Z,11.60
2019-02-26T01:27:48.331Z,12.60
2019-02-26T01:30:23.526Z,11.00
2019-02-26T01:32:48.309Z,10.85
2019-02-26T01:35:16.864Z,10.55
2019-02-26T01:37:45.350Z,10.70
2019-02-26T01:40:18.296Z,10.78
2019-02-26T01:42:49.835Z,11.68
2019-02-26T01:45:14.868Z,11.20
2019-02-26T01:47:45.619Z,11.68
2019-02-26T01:50:15.906Z,19.27
2019-02-26T01:52:43.998Z,15.40
2019-02-26T01:55:12.692Z,10.90
2019-02-26T01:57:43.501Z,10.85
2019-02-26T02:00:19.142Z,15.00
2019-02-26T02:02:47.621Z,17.65
2019-02-26T02:05:16.116Z,14.05
2019-02-26T02:07:46.752Z,13.72
2019-02-26T02:10:15.726Z,11.95
2019-02-26T02:12:44.218Z,10.72
2019-02-26T02:15:17.368Z,10.35
2019-02-26T02:17:44.516Z,10.32
2019-02-26T02:20:18.082Z,10.65
2019-02-26T02:22:44.655Z,10.30
2019-02-26T02:25:13.158Z,10.75
2019-02-26T02:27:41.650Z,11.28
2019-02-26T02:30:17.887Z,10.68
2019-02-26T02:32:43.391Z,9.65
2019-02-26T02:35:12.716Z,10.20
2019-02-26T02:37:42.099Z,10.90
2019-02-26T02:40:12.098Z,10.35
2019-02-26T02:42:42.970Z,10.35
2019-02-26T02:45:16.109Z,10.18
2019-02-26T02:47:42.221Z,10.78
2019-02-26T02:50:15.278Z,10.63
2019-02-26T02:52:44.041Z,11.60
2019-02-26T02:55:15.630Z,11.83
2019-02-26T02:57:42.963Z,12.60
2019-02-26T03:00:16.284Z,13.70
2019-02-26T03:02:46.803Z,12.25
2019-02-26T03:05:15.082Z,12.98
2019-02-26T03:07:47.556Z,14.35
2019-02-26T03:10:16.492Z,12.30
2019-02-26T03:12:48.622Z,12.55
2019-02-26T03:15:16.010Z,12.15
2019-02-26T03:17:44.494Z,12.20
2019-02-26T03:20:14.936Z,11.60
2019-02-26T03:22:46.694Z,11.95
2019-02-26T03:25:21.127Z,10.95
2019-02-26T03:27:47.772Z,11.63
2019-02-26T03:30:31.967Z,11.50
2019-02-26T03:32:58.076Z,11.20
2019-02-26T03:35:23.779Z,10.63
2019-02-26T03:37:55.540Z,11.22
2019-02-26T03:40:24.123Z,13.08
2019-02-26T03:42:52.893Z,16.40
2019-02-26T03:45:24.838Z,18.87
2019-02-26T03:47:51.607Z,11.78
2019-02-26T03:50:20.178Z,12.55
2019-02-26T03:52:48.664Z,11.90
2019-02-26T03:55:18.749Z,12.10
2019-02-26T03:57:50.383Z,13.18
2019-02-26T04:00:20.578Z,13.35
2019-02-26T04:02:51.740Z,13.28
2019-02-26T04:05:19.364Z,13.65
2019-02-26T04:07:51.650Z,13.22
2019-02-26T04:10:18.045Z,12.73
2019-02-26T04:12:48.746Z,13.90
2019-02-26T04:15:19.863Z,15.15
2019-02-26T04:17:48.384Z,14.73
2019-02-26T04:20:16.877Z,14.43
2019-02-26T04:22:48.864Z,13.03
2019-02-26T04:25:24.256Z,15.18
2019-02-26T04:27:57.037Z,13.72
2019-02-26T04:30:47.197Z,16.15
2019-02-26T04:33:30.781Z,24.95
2019-02-26T04:36:26.355Z,19.60
2019-02-26T04:39:22.091Z,19.25
2019-02-26T04:42:11.430Z,14.63
2019-02-26T04:45:02.147Z,13.32
2019-02-26T04:47:41.936Z,13.03
2019-02-26T04:50:10.437Z,12.25
2019-02-26T04:52:42.834Z,12.58
2019-02-26T04:55:09.444Z,13.80
2019-02-26T04:57:40.171Z,15.72
2019-02-26T05:00:10.600Z,15.23
2019-02-26T05:02:39.319Z,29.07
2019-02-26T05:05:08.566Z,16.93
2019-02-26T05:07:38.437Z,16.67
2019-02-26T05:10:08.003Z,18.27
2019-02-26T05:12:37.875Z,12.30
2019-02-26T05:15:11.493Z,33.98
2019-02-26T05:17:37.349Z,14.68
2019-02-26T05:20:09.697Z,17.30
2019-02-26T05:22:36.905Z,13.48
2019-02-26T05:25:08.297Z,12.90
2019-02-26T05:27:40.081Z,14.25
2019-02-26T05:30:09.718Z,14.58
2019-02-26T05:32:39.369Z,14.40
2019-02-26T05:35:07.903Z,18.15
2019-02-26T05:37:38.217Z,16.40
2019-02-26T05:40:10.477Z,38.63
2019-02-26T05:42:37.608Z,17.90
2019-02-26T05:45:09.155Z,16.07
2019-02-26T05:47:36.905Z,14.60
2019-02-26T05:50:13.110Z,19.55
2019-02-26T05:52:37.848Z,21.35
2019-02-26T05:55:06.530Z,24.92
2019-02-26T05:57:35.020Z,22.22
2019-02-26T06:00:04.423Z,17.85
2019-02-26T06:02:32.924Z,14.38
2019-02-26T06:05:01.403Z,16.30
2019-02-26T06:07:33.039Z,18.27
2019-02-26T06:10:00.108Z,17.17
2019-02-26T06:12:32.388Z,18.05
2019-02-26T06:15:04.211Z,14.53
2019-02-26T06:17:29.029Z,14.23
2019-02-26T06:20:10.998Z,15.95
2019-02-26T06:22:39.558Z,19.85
2019-02-26T06:25:13.487Z,19.48
2019-02-26T06:27:38.258Z,16.35
2019-02-26T06:30:12.899Z,22.15
2019-02-26T06:32:42.665Z,17.98
2019-02-26T06:35:16.089Z,18.12
2019-02-26T06:37:44.098Z,12.53
2019-02-26T06:40:14.492Z,13.08
2019-02-26T06:42:42.968Z,12.20
2019-02-26T06:45:16.373Z,11.95
2019-02-26T06:47:45.647Z,11.30
2019-02-26T06:50:16.576Z,10.50
2019-02-26T06:52:46.940Z,10.50
2019-02-26T06:55:14.869Z,10.78
2019-02-26T06:57:44.681Z,10.05
2019-02-26T07:00:16.846Z,11.12
2019-02-26T07:02:46.406Z,15.08
2019-02-26T07:05:15.225Z,13.10
2019-02-26T07:07:43.725Z,12.28
2019-02-26T07:10:18.381Z,11.08
2019-02-26T07:12:45.528Z,13.15
2019-02-26T07:15:15.617Z,13.58
2019-02-26T07:17:45.921Z,16.27
2019-02-26T07:20:14.328Z,12.75
2019-02-26T07:22:44.048Z,11.55
2019-02-26T07:25:16.072Z,11.85
2019-02-26T07:27:43.571Z,11.22
2019-02-26T07:30:12.549Z,8.03
2019-02-26T07:32:43.089Z,11.80
2019-02-26T07:35:13.765Z,9.38
2019-02-26T07:37:41.490Z,7.83
2019-02-26T07:40:15.437Z,10.72
2019-02-26T07:42:46.059Z,8.13
2019-02-26T07:45:15.257Z,9.23
2019-02-26T07:47:45.176Z,9.05
2019-02-26T07:50:14.965Z,10.15
2019-02-26T07:52:44.116Z,9.75
2019-02-26T07:55:14.693Z,11.12
2019-02-26T07:57:45.253Z,7.37
2019-02-26T08:00:21.325Z,8.10
2019-02-26T08:02:52.005Z,7.97
2019-02-26T08:05:21.245Z,10.05
2019-02-26T08:07:51.907Z,8.53
2019-02-26T08:10:20.454Z,7.97
2019-02-26T08:12:48.942Z,8.43
2019-02-26T08:15:17.421Z,8.23
2019-02-26T08:17:50.229Z,10.65
2019-02-26T08:20:16.699Z,9.78
2019-02-26T08:22:45.234Z,10.53
2019-02-26T08:25:14.127Z,10.43
2019-02-26T08:27:42.608Z,10.48
2019-02-26T08:30:20.149Z,9.70
2019-02-26T08:32:48.498Z,10.18
2019-02-26T08:35:18.897Z,12.60
2019-02-26T08:37:46.303Z,8.10
2019-02-26T08:40:15.196Z,10.08
2019-02-26T08:42:43.669Z,9.70
2019-02-26T08:45:15.853Z,12.78
2019-02-26T08:47:45.042Z,36.42
2019-02-26T08:50:14.870Z,29.15
2019-02-26T08:52:44.869Z,10.70
2019-02-26T08:55:18.295Z,14.53
2019-02-26T08:57:46.008Z,13.98
2019-02-26T09:00:21.020Z,14.43
2019-02-26T09:02:53.670Z,13.40
2019-02-26T09:05:19.726Z,23.90
2019-02-26T09:07:50.579Z,12.75
2019-02-26T09:10:22.669Z,16.40
2019-02-26T09:12:51.438Z,16.77
2019-02-26T09:15:19.836Z,10.00
2019-02-26T09:17:48.320Z,15.90
2019-02-26T09:20:18.090Z,15.48
2019-02-26T09:22:48.740Z,16.10
2019-02-26T09:25:16.777Z,19.70
2019-02-26T09:27:45.269Z,17.45
2019-02-26T09:30:20.244Z,16.02
2019-02-26T09:32:48.724Z,12.80
2019-02-26T09:35:26.261Z,9.43
2019-02-26T09:37:53.346Z,14.13
2019-02-26T09:40:23.635Z,13.55
2019-02-26T09:42:54.561Z,14.53
2019-02-26T09:45:26.085Z,14.03
2019-02-26T09:47:55.636Z,11.00
2019-02-26T09:50:23.801Z,14.68
2019-02-26T09:52:55.128Z,11.40
2019-02-26T09:55:22.500Z,11.33
2019-02-26T09:57:50.977Z,12.28
2019-02-26T10:00:23.606Z,12.58
2019-02-26T10:02:52.069Z,12.88
2019-02-26T10:05:20.846Z,9.68
2019-02-26T10:07:53.674Z,10.30
2019-02-26T10:10:25.355Z,10.48
2019-02-26T10:12:56.239Z,12.03
2019-02-26T10:15:23.721Z,14.55
2019-02-26T10:17:52.203Z,13.45
2019-02-26T10:20:23.282Z,11.35
2019-02-26T10:22:53.238Z,10.18
2019-02-26T10:25:23.267Z,8.25
2019-02-26T10:27:52.728Z,8.60
2019-02-26T10:30:21.801Z,10.98
2019-02-26T10:32:50.299Z,10.80
2019-02-26T10:35:33.233Z,15.38
2019-02-26T10:37:57.068Z,16.70
2019-02-26T10:40:34.598Z,55.85
2019-02-26T10:42:57.027Z,29.75
2019-02-26T10:45:29.245Z,25.02
2019-02-26T10:48:00.941Z,15.08
2019-02-26T10:50:31.676Z,19.07
2019-02-26T10:53:06.715Z,19.90
2019-02-26T10:55:37.118Z,32.75
2019-02-26T10:58:03.614Z,11.70
2019-02-26T11:00:34.092Z,9.10
2019-02-26T11:03:01.027Z,10.58
2019-02-26T11:05:29.600Z,12.03
2019-02-26T11:08:01.407Z,12.85
2019-02-26T11:10:28.670Z,11.63
2019-02-26T11:12:59.411Z,10.20
2019-02-26T11:15:30.264Z,10.30
2019-02-26T11:17:57.534Z,9.13
2019-02-26T11:20:28.270Z,6.97
2019-02-26T11:22:56.237Z,9.73
2019-02-26T11:25:27.181Z,13.65
2019-02-26T11:27:54.925Z,11.25
2019-02-26T11:30:28.574Z,8.50
2019-02-26T11:32:58.762Z,97.82
2019-02-26T11:35:27.100Z,13.65
2019-02-26T11:37:57.409Z,9.58
2019-02-26T11:40:29.660Z,11.88
2019-02-26T11:42:56.127Z,12.28
2019-02-26T11:45:24.610Z,9.88
2019-02-26T11:47:55.176Z,11.35
2019-02-26T11:50:27.935Z,11.30
2019-02-26T11:52:57.129Z,9.00
2019-02-26T11:55:26.877Z,7.03
2019-02-26T11:57:55.849Z,8.60
2019-02-26T12:00:31.358Z,7.70
2019-02-26T12:02:57.310Z,8.43
2019-02-26T12:05:31.458Z,9.78
2019-02-26T12:07:56.825Z,10.48
2019-02-26T12:10:29.089Z,6.65
2019-02-26T12:12:57.278Z,6.25
2019-02-26T12:15:29.952Z,6.95
2019-02-26T12:17:58.760Z,11.70
2019-02-26T12:20:27.119Z,10.95
2019-02-26T12:22:55.614Z,8.35
2019-02-26T12:25:24.082Z,8.13
2019-02-26T12:27:52.576Z,6.22
2019-02-26T12:30:21.863Z,5.78
2019-02-26T12:32:52.498Z,6.87
2019-02-26T12:35:20.557Z,7.80
2019-02-26T12:37:50.288Z,8.13
2019-02-26T12:40:21.779Z,8.00
2019-02-26T12:42:49.615Z,7.22
2019-02-26T12:45:19.604Z,8.18
2019-02-26T12:47:49.347Z,8.98
2019-02-26T12:50:23.784Z,8.95
2019-02-26T12:52:53.842Z,8.18
2019-02-26T12:55:28.946Z,9.30
2019-02-26T12:57:56.143Z,9.50
2019-02-26T13:00:26.473Z,8.15
2019-02-26T13:02:54.979Z,18.10
2019-02-26T13:05:23.489Z,19.20
2019-02-26T13:07:52.009Z,10.50
2019-02-26T13:10:25.468Z,14.33
2019-02-26T13:12:59.454Z,17.02
2019-02-26T13:15:24.170Z,9.30
2019-02-26T13:17:54.558Z,12.63
2019-02-26T13:20:29.123Z,7.85
2019-02-26T13:23:16.317Z,10.10
2019-02-26T13:25:27.813Z,9.58
2019-02-26T13:27:56.297Z,12.63
2019-02-26T13:30:25.786Z,11.90
2019-02-26T13:32:59.787Z,10.30
2019-02-26T13:35:24.542Z,10.90
2019-02-26T13:37:55.884Z,11.30
2019-02-26T13:40:25.298Z,12.18
2019-02-26T13:45:25.564Z,11.63
2019-02-26T13:48:00.838Z,12.43
2019-02-26T13:50:32.617Z,13.60
2019-02-26T13:53:01.104Z,11.55
2019-02-26T13:55:29.591Z,10.55
2019-02-26T13:57:58.077Z,11.22
2019-02-26T14:00:27.112Z,11.68
2019-02-26T14:02:55.732Z,10.75
2019-02-26T14:05:24.216Z,12.47
2019-02-26T14:07:52.707Z,14.70
2019-02-26T14:10:24.312Z,14.18
2019-02-26T14:12:52.797Z,11.83
2019-02-26T14:15:26.699Z,13.88
2019-02-26T14:17:55.186Z,16.02
2019-02-26T14:20:23.660Z,19.85
2019-02-26T14:22:52.198Z,14.47
2019-02-26T14:25:20.677Z,13.78
2019-02-26T14:27:49.164Z,12.55
2019-02-26T14:30:19.631Z,13.90
2019-02-26T14:32:48.133Z,15.60
2019-02-26T14:35:16.619Z,11.05
2019-02-26T14:37:45.104Z,15.95
2019-02-26T14:40:20.219Z,13.90
2019-02-26T14:42:48.701Z,16.62
2019-02-26T14:45:25.166Z,14.60
2019-02-26T14:47:53.645Z,12.88
2019-02-26T14:50:23.049Z,13.78
2019-02-26T14:52:51.530Z,13.30
2019-02-26T14:55:20.023Z,14.35
2019-02-26T14:57:48.507Z,15.48
2019-02-26T15:00:27.867Z,9.40
2019-02-26T15:02:56.354Z,12.18
2019-02-26T15:05:24.841Z,13.70
2019-02-26T15:07:53.328Z,8.65
2019-02-26T15:10:21.817Z,10.55
2019-02-26T15:12:50.310Z,8.73
2019-02-26T15:15:19.209Z,8.30
2019-02-26T15:17:47.684Z,8.93
2019-02-26T15:20:20.215Z,7.95
2019-02-26T15:22:48.708Z,10.30
2019-02-26T15:25:25.819Z,10.93
2019-02-26T15:27:54.328Z,9.03
2019-02-26T15:30:23.119Z,10.80
2019-02-26T15:32:51.621Z,9.35
2019-02-26T15:35:20.319Z,9.63
2019-02-26T15:37:48.825Z,9.90
2019-02-26T15:40:20.969Z,9.53
2019-02-26T15:42:52.339Z,9.18
2019-02-26T15:45:29.011Z,15.25
2019-02-26T15:47:58.192Z,13.30
2019-02-26T15:50:26.681Z,15.00
2019-02-26T15:52:55.238Z,12.28
2019-02-26T15:55:29.250Z,11.75
2019-02-26T15:58:02.974Z,13.35
2019-02-26T16:00:28.252Z,23.15
2019-02-26T16:02:59.369Z,22.52
2019-02-26T16:05:29.490Z,23.38
2019-02-26T16:07:57.968Z,21.33
2019-02-26T16:10:26.467Z,23.00
2019-02-26T16:12:56.531Z,27.85
2019-02-26T16:15:25.031Z,31.95
2019-02-26T16:17:58.152Z,33.63
2019-02-26T16:20:23.754Z,25.48
2019-02-26T16:22:52.261Z,20.90
2019-02-26T16:25:20.784Z,19.80
2019-02-26T16:27:51.710Z,19.60
2019-02-26T16:30:27.589Z,17.73
2019-02-26T16:32:56.355Z,19.52
2019-02-26T16:35:25.597Z,17.23
2019-02-26T16:37:54.322Z,19.37
2019-02-26T16:40:22.807Z,17.05
2019-02-26T16:42:51.324Z,17.57
2019-02-26T16:45:27.227Z,14.80
2019-02-26T16:47:57.272Z,16.25
2019-02-26T16:50:31.750Z,15.63
2019-02-26T16:53:01.069Z,17.80
2019-02-26T16:55:30.039Z,18.85
2019-02-26T16:58:02.373Z,18.45
2019-02-26T17:00:29.985Z,18.30
2019-02-26T17:03:00.982Z,17.60
2019-02-26T17:05:28.991Z,18.30
2019-02-26T17:07:57.757Z,17.92
2019-02-26T17:10:30.326Z,17.52
2019-02-26T17:13:01.767Z,18.07
2019-02-26T17:15:35.863Z,18.92
2019-02-26T17:18:04.357Z,21.80
2019-02-26T17:20:32.843Z,20.80
2019-02-26T17:23:01.340Z,23.92
2019-02-26T17:25:29.822Z,21.27
2019-02-26T17:27:58.310Z,25.25
2019-02-26T17:30:26.807Z,25.82
2019-02-26T17:32:55.396Z,28.62
2019-02-26T17:35:23.879Z,23.62
2019-02-26T17:37:52.376Z,25.95
2019-02-26T17:40:21.960Z,32.75
2019-02-26T17:42:51.260Z,27.52
2019-02-26T17:45:31.678Z,28.50
2019-02-26T17:48:00.187Z,25.62
2019-02-26T17:50:39.647Z,28.47
2019-02-26T17:53:08.509Z,33.15
2019-02-26T17:55:36.998Z,25.55
2019-02-26T17:58:09.800Z,25.08
2019-02-26T18:00:40.207Z,29.60
2019-02-26T18:03:08.690Z,35.68
2019-02-26T18:05:40.725Z,28.92
2019-02-26T18:08:07.400Z,27.42
2019-02-26T18:10:36.683Z,23.10
2019-02-26T18:13:05.362Z,31.68
2019-02-26T18:15:33.960Z,28.17
2019-02-26T18:18:02.451Z,23.38
2019-02-26T18:20:30.934Z,24.10
2019-02-26T18:23:00.221Z,33.85
2019-02-26T18:25:29.402Z,25.48
2019-02-26T18:27:57.893Z,24.60
2019-02-26T18:30:30.192Z,23.80
2019-02-26T18:32:59.307Z,23.47
2019-02-26T18:35:27.952Z,25.40
2019-02-26T18:37:56.449Z,25.37
2019-02-26T18:40:27.899Z,23.95
2019-02-26T18:42:55.156Z,22.22
2019-02-26T18:45:27.923Z,26.52
2019-02-26T18:47:56.608Z,25.32
2019-02-26T18:50:25.929Z,28.77
2019-02-26T18:52:55.321Z,26.02
2019-02-26T18:55:27.981Z,24.67
2019-02-26T18:57:54.521Z,23.25
2019-02-26T19:00:28.389Z,24.85
2019-02-26T19:02:56.901Z,24.07
2019-02-26T19:05:25.372Z,24.12
2019-02-26T19:07:53.910Z,25.15
2019-02-26T19:10:22.386Z,27.55
2019-02-26T19:12:50.869Z,25.65
2019-02-26T19:15:24.637Z,22.58
2019-02-26T19:17:54.525Z,28.27
2019-02-26T19:20:31.721Z,33.02
2019-02-26T19:23:02.022Z,27.73
2019-02-26T19:25:30.489Z,36.25
2019-02-26T19:27:58.978Z,38.38
2019-02-26T19:30:27.543Z,25.72
2019-02-26T19:32:56.026Z,25.08
2019-02-26T19:35:24.541Z,29.45
2019-02-26T19:37:56.680Z,27.93
2019-02-26T19:40:33.969Z,26.82
2019-02-26T19:43:02.447Z,28.20
2019-02-26T19:45:32.895Z,26.93
2019-02-26T19:48:01.150Z,28.40
2019-02-26T19:50:29.650Z,29.70
2019-02-26T19:53:02.149Z,31.02
2019-02-26T19:55:34.205Z,31.80
2019-02-26T19:58:05.751Z,29.42
2019-02-26T20:00:32.972Z,33.05
2019-02-26T20:03:04.886Z,30.27
2019-02-26T20:05:31.634Z,28.90
2019-02-26T20:08:00.132Z,33.00
2019-02-26T20:10:28.842Z,32.35
2019-02-26T20:13:00.440Z,36.60
2019-02-26T20:15:27.561Z,31.17
2019-02-26T20:17:56.042Z,30.85
2019-02-26T20:20:24.541Z,27.17
2019-02-26T20:22:53.026Z,27.52
2019-02-26T20:25:21.614Z,28.77
2019-02-26T20:27:50.103Z,26.60
2019-02-26T20:30:22.923Z,27.20
2019-02-26T20:32:51.269Z,27.73
2019-02-26T20:35:19.762Z,25.72
2019-02-26T20:37:48.249Z,26.07
2019-02-26T20:40:24.755Z,25.90
2019-02-26T20:42:53.240Z,26.73
2019-02-26T20:45:22.749Z,26.20
2019-02-26T20:47:51.296Z,26.23
2019-02-26T20:50:21.081Z,25.12
2019-02-26T20:52:50.000Z,25.25
2019-02-26T20:55:29.679Z,25.15
2019-02-26T20:57:58.168Z,26.57
2019-02-26T21:00:26.762Z,24.23
2019-02-26T21:02:55.288Z,25.08
2019-02-26T21:05:25.059Z,26.35
2019-02-26T21:07:58.012Z,24.12
2019-02-26T21:10:23.966Z,23.32
2019-02-26T21:12:52.441Z,23.77
2019-02-26T21:15:25.166Z,22.25
2019-02-26T21:17:57.712Z,24.02
2019-02-26T21:20:23.874Z,24.30
2019-02-26T21:22:54.571Z,23.50
2019-02-26T21:25:22.597Z,25.08
2019-02-26T21:27:51.074Z,25.02
2019-02-26T21:30:24.722Z,22.60
2019-02-26T21:32:57.859Z,23.15
2019-02-26T21:35:25.083Z,21.70
2019-02-26T21:37:53.677Z,23.73
2019-02-26T21:40:22.155Z,23.75
2019-02-26T21:42:50.782Z,24.25
2019-02-26T21:45:22.244Z,22.90
2019-02-26T21:47:51.378Z,22.98
2019-02-26T21:50:22.894Z,22.22
2019-02-26T21:53:05.541Z,22.87
2019-02-26T21:55:20.952Z,23.85
2019-02-26T21:57:49.447Z,22.98
2019-02-26T22:00:20.393Z,22.32
2019-02-26T22:02:52.105Z,21.90
2019-02-26T22:05:19.177Z,21.50
2019-02-26T22:07:51.989Z,19.92
2019-02-26T22:10:22.334Z,22.58
2019-02-26T22:12:50.822Z,21.30
2019-02-26T22:15:19.304Z,21.65
2019-02-26T22:17:47.826Z,21.35
2019-02-26T22:20:35.495Z,22.60
2019-02-26T22:22:50.420Z,21.42
2019-02-26T22:25:19.012Z,21.12
2019-02-26T22:27:47.495Z,20.70
2019-02-26T22:30:21.562Z,19.23
2019-02-26T22:32:47.589Z,19.90
2019-02-26T22:35:16.064Z,20.27
2019-02-26T22:37:44.557Z,18.52
2019-02-26T22:40:15.837Z,19.12
2019-02-26T22:42:44.334Z,18.27
2019-02-26T22:45:12.273Z,19.15
2019-02-26T22:47:41.550Z,19.17
2019-02-26T22:50:13.156Z,16.90
2019-02-26T22:52:41.772Z,16.48
2019-02-26T22:55:16.131Z,36.58
2019-02-26T22:57:43.041Z,61.40
2019-02-26T23:00:31.418Z,62.53
2019-02-26T23:02:59.947Z,52.40
2019-02-26T23:05:28.736Z,54.83
2019-02-26T23:07:57.227Z,53.35
2019-02-26T23:10:25.720Z,49.70
2019-02-26T23:12:54.208Z,46.13
2019-02-26T23:15:22.700Z,37.95
2019-02-26T23:17:51.202Z,49.27
2019-02-26T23:20:19.738Z,59.18
2019-02-26T23:22:48.425Z,40.23
2019-02-26T23:25:16.905Z,26.27
2019-02-26T23:27:46.126Z,24.82
2019-02-26T23:30:16.211Z,38.48
2019-02-26T23:32:44.696Z,38.67
2019-02-26T23:35:14.082Z,36.70
2019-02-26T23:37:42.575Z,33.13
2019-02-26T23:40:12.108Z,29.80
2019-02-26T23:42:40.596Z,34.85
2019-02-26T23:45:13.327Z,51.80
2019-02-26T23:47:41.804Z,34.60
2019-02-26T23:50:11.294Z,30.12
2019-02-26T23:52:39.796Z,44.30
2019-02-26T23:55:13.052Z,41.65
2019-02-26T23:57:40.395Z,31.68
